createdAt,value
2018-05-05T00:00:06.151Z,9.62
2018-05-05T00:02:33.918Z,9.58
2018-05-05T00:05:01.362Z,9.45
2018-05-05T00:07:28.801Z,9.35
2018-05-05T00:09:56.230Z,9.19
2018-05-05T00:12:23.645Z,9.36
2018-05-05T00:14:51.992Z,9.47
2018-05-05T00:17:19.417Z,9.42
2018-05-05T00:19:46.889Z,9.35
2018-05-05T00:22:14.309Z,9.36
2018-05-05T00:24:41.753Z,9.32
2018-05-05T00:27:09.171Z,9.23
2018-05-05T00:29:36.608Z,9.17
2018-05-05T00:32:04.025Z,9.23
2018-05-05T00:34:31.463Z,9.26
2018-05-05T00:36:58.877Z,9.15
2018-05-05T00:39:26.325Z,9.06
2018-05-05T00:41:53.746Z,9.17
2018-05-05T00:44:21.197Z,9.19
2018-05-05T00:46:48.627Z,9.22
2018-05-05T00:49:16.987Z,9.04
2018-05-05T00:51:44.438Z,8.91
2018-05-05T00:54:23.509Z,8.75
2018-05-05T00:56:50.972Z,8.88
2018-05-05T00:59:19.110Z,8.72
2018-05-05T01:01:46.573Z,8.64
2018-05-05T01:04:13.998Z,8.58
2018-05-05T01:06:41.461Z,8.77
2018-05-05T01:09:08.882Z,8.69
2018-05-05T01:11:36.330Z,8.51
2018-05-05T01:14:04.478Z,8.60
2018-05-05T01:16:31.935Z,8.58
2018-05-05T01:18:59.383Z,8.46
2018-05-05T01:21:26.845Z,8.41
2018-05-05T01:23:54.266Z,8.44
2018-05-05T01:26:21.674Z,8.48
2018-05-05T01:28:49.121Z,8.56
2018-05-05T01:31:16.541Z,8.45
2018-05-05T01:33:43.986Z,8.32
2018-05-05T01:36:11.413Z,8.16
2018-05-05T01:38:38.858Z,8.35
2018-05-05T01:41:06.286Z,8.56
2018-05-05T01:43:33.734Z,8.55
2018-05-05T01:46:01.149Z,8.65
2018-05-05T01:48:28.595Z,8.47
2018-05-05T01:50:56.007Z,8.29
2018-05-05T01:53:23.465Z,8.20
2018-05-05T01:55:51.786Z,8.15
2018-05-05T01:58:19.225Z,8.12
2018-05-05T02:00:47.478Z,8.22
2018-05-05T02:03:14.922Z,8.22
2018-05-05T02:05:42.361Z,8.14
2018-05-05T02:08:09.817Z,8.04
2018-05-05T02:10:37.226Z,8.01
2018-05-05T02:13:04.682Z,7.96
2018-05-05T02:15:32.115Z,7.97
2018-05-05T02:17:59.571Z,8.13
2018-05-05T02:20:27.000Z,8.19
2018-05-05T02:22:54.409Z,8.10
2018-05-05T02:25:21.858Z,8.02
2018-05-05T02:27:49.281Z,7.96
2018-05-05T02:30:16.739Z,7.90
2018-05-05T02:32:44.181Z,7.86
2018-05-05T02:35:11.629Z,8.00
2018-05-05T02:37:39.051Z,8.14
2018-05-05T02:40:06.489Z,8.03
2018-05-05T02:42:33.925Z,8.20
2018-05-05T02:45:02.294Z,8.21
2018-05-05T02:47:29.710Z,8.23
2018-05-05T02:49:57.154Z,8.25
2018-05-05T02:52:24.570Z,8.28
2018-05-05T02:54:52.041Z,8.16
2018-05-05T02:57:19.454Z,8.14
2018-05-05T02:59:46.911Z,8.34
2018-05-05T03:02:14.354Z,8.28
2018-05-05T03:04:42.695Z,8.11
2018-05-05T03:07:11.006Z,7.98
2018-05-05T03:09:38.482Z,7.90
2018-05-05T03:12:05.910Z,8.05
2018-05-05T03:14:33.379Z,8.14
2018-05-05T03:17:00.790Z,8.09
2018-05-05T03:19:29.134Z,8.06
2018-05-05T03:21:58.516Z,8.08
2018-05-05T03:24:25.947Z,8.01
2018-05-05T03:26:54.377Z,7.98
2018-05-05T03:29:21.746Z,8.07
2018-05-05T03:31:49.196Z,8.09
2018-05-05T03:34:18.539Z,8.01
2018-05-05T03:36:46.011Z,7.92
2018-05-05T03:39:14.349Z,7.75
2018-05-05T03:41:42.743Z,7.86
2018-05-05T03:44:11.091Z,7.83
2018-05-05T03:46:38.553Z,7.78
2018-05-05T03:49:05.982Z,7.86
2018-05-05T03:51:33.460Z,7.87
2018-05-05T03:54:01.798Z,7.86
2018-05-05T03:56:29.251Z,7.78
2018-05-05T03:59:08.340Z,7.90
2018-05-05T04:02:14.580Z,8.14
2018-05-05T04:19:15.847Z,8.78
2018-05-05T04:21:43.352Z,8.85
2018-05-05T04:24:10.787Z,8.85
2018-05-05T04:26:41.162Z,8.91
2018-05-05T04:29:13.850Z,8.95
2018-05-05T04:31:45.429Z,8.93
2018-05-05T04:34:12.899Z,9.08
2018-05-05T04:36:40.334Z,9.13
2018-05-05T04:39:07.790Z,9.24
2018-05-05T04:41:36.126Z,9.31
2018-05-05T04:44:03.576Z,9.37
2018-05-05T04:46:31.946Z,9.53
2018-05-05T04:48:59.403Z,9.54
2018-05-05T04:51:27.879Z,9.50
2018-05-05T04:53:55.252Z,9.66
2018-05-05T04:56:26.246Z,9.69
2018-05-05T04:58:58.893Z,9.55
2018-05-05T05:01:31.568Z,9.50
2018-05-05T05:04:01.292Z,9.65
2018-05-05T05:12:45.985Z,9.77
2018-05-05T05:15:20.440Z,9.86
2018-05-05T05:18:00.872Z,10.06
2018-05-05T05:20:40.137Z,10.45
2018-05-05T05:23:19.028Z,10.86
2018-05-05T05:26:02.671Z,11.16
2018-05-05T05:28:54.102Z,11.44
2018-05-05T05:31:22.616Z,11.53
2018-05-05T05:33:50.034Z,11.74
2018-05-05T05:36:17.492Z,11.65
2018-05-05T05:38:44.910Z,11.55
2018-05-05T05:41:14.251Z,11.59
2018-05-05T05:43:41.682Z,11.78
2018-05-05T05:46:09.137Z,11.93
2018-05-05T05:48:36.558Z,12.08
2018-05-05T05:51:04.005Z,12.19
2018-05-05T05:53:31.442Z,12.37
2018-05-05T05:55:58.898Z,12.46
2018-05-05T05:58:26.325Z,12.51
2018-05-05T06:00:53.781Z,12.70
2018-05-05T06:03:21.216Z,12.97
2018-05-05T06:05:48.675Z,13.06
2018-05-05T06:08:16.102Z,13.15
2018-05-05T06:10:43.523Z,13.08
2018-05-05T06:13:11.866Z,12.77
2018-05-05T06:15:40.190Z,12.73
2018-05-05T06:18:07.647Z,12.18
2018-05-05T06:20:35.079Z,12.19
2018-05-05T06:23:02.522Z,12.75
2018-05-05T06:25:29.934Z,12.96
2018-05-05T06:27:57.371Z,13.27
2018-05-05T06:30:24.803Z,13.18
2018-05-05T06:32:52.249Z,13.21
2018-05-05T06:35:19.683Z,13.35
2018-05-05T06:37:47.159Z,13.58
2018-05-05T06:40:15.501Z,13.57
2018-05-05T06:42:42.945Z,13.76
2018-05-05T06:45:10.366Z,14.12
2018-05-05T06:47:41.388Z,14.54
2018-05-05T06:50:08.805Z,14.93
2018-05-05T06:52:36.303Z,15.16
2018-05-05T06:55:03.721Z,15.23
2018-05-05T06:57:32.089Z,15.18
2018-05-05T06:59:59.529Z,14.94
2018-05-05T07:02:26.944Z,14.61
2018-05-05T07:04:54.386Z,14.09
2018-05-05T07:07:21.798Z,14.43
2018-05-05T07:09:49.238Z,14.65
2018-05-05T07:12:16.651Z,14.45
2018-05-05T07:14:44.096Z,14.45
2018-05-05T07:17:11.509Z,14.87
2018-05-05T07:19:38.947Z,15.21
2018-05-05T07:22:06.360Z,15.44
2018-05-05T07:24:33.793Z,15.71
2018-05-05T07:27:01.205Z,15.45
2018-05-05T07:29:28.644Z,16.19
2018-05-05T07:31:56.054Z,16.38
2018-05-05T07:34:23.501Z,16.26
2018-05-05T07:36:50.921Z,16.54
2018-05-05T07:39:18.354Z,16.76
2018-05-05T07:41:45.793Z,16.32
2018-05-05T07:44:13.238Z,16.56
2018-05-05T07:46:40.642Z,16.81
2018-05-05T07:49:08.049Z,16.97
2018-05-05T07:51:37.082Z,17.23
2018-05-05T07:54:04.494Z,16.76
2018-05-05T07:56:31.928Z,16.42
2018-05-05T07:58:59.339Z,16.49
2018-05-05T08:01:26.769Z,16.73
2018-05-05T08:03:54.177Z,16.84
2018-05-05T08:06:21.622Z,17.36
2018-05-05T08:08:49.042Z,17.36
2018-05-05T08:11:16.470Z,17.33
2018-05-05T08:13:43.891Z,17.50
2018-05-05T08:16:11.323Z,17.74
2018-05-05T08:18:38.734Z,17.50
2018-05-05T08:21:06.165Z,17.64
2018-05-05T08:23:33.573Z,18.22
2018-05-05T08:26:01.009Z,18.05
2018-05-05T08:28:29.321Z,17.68
2018-05-05T08:30:56.761Z,17.96
2018-05-05T08:33:24.197Z,17.93
2018-05-05T08:35:51.615Z,17.98
2018-05-05T08:38:19.059Z,18.28
2018-05-05T08:40:46.467Z,18.44
2018-05-05T08:43:13.906Z,18.62
2018-05-05T08:45:41.313Z,18.69
2018-05-05T08:48:08.746Z,18.39
2018-05-05T08:50:36.161Z,18.44
2018-05-05T08:53:03.602Z,18.58
2018-05-05T08:55:31.009Z,18.41
2018-05-05T08:57:58.442Z,18.30
2018-05-05T09:00:25.861Z,17.67
2018-05-05T09:02:53.289Z,18.06
2018-05-05T09:05:20.702Z,18.27
2018-05-05T09:07:48.149Z,18.09
2018-05-05T09:10:15.560Z,17.77
2018-05-05T09:12:42.973Z,17.61
2018-05-05T09:15:10.421Z,17.88
2018-05-05T09:17:37.858Z,17.58
2018-05-05T09:20:05.298Z,17.91
2018-05-05T09:22:32.705Z,18.19
2018-05-05T09:25:00.146Z,18.02
2018-05-05T09:27:29.455Z,17.99
2018-05-05T09:29:57.793Z,18.07
2018-05-05T09:32:25.197Z,17.61
2018-05-05T09:34:52.638Z,17.42
2018-05-05T09:37:20.054Z,17.91
2018-05-05T09:39:47.494Z,18.06
2018-05-05T09:42:14.902Z,17.98
2018-05-05T09:44:42.337Z,18.45
2018-05-05T09:47:09.761Z,18.09
2018-05-05T09:49:37.205Z,18.27
2018-05-05T09:52:04.623Z,18.10
2018-05-05T09:54:32.034Z,18.14
2018-05-05T09:56:59.470Z,17.95
2018-05-05T09:59:26.892Z,17.77
2018-05-05T10:01:54.330Z,17.36
2018-05-05T10:04:21.741Z,17.57
2018-05-05T10:06:49.185Z,17.40
2018-05-05T10:09:16.602Z,17.76
2018-05-05T10:11:44.033Z,17.86
2018-05-05T10:14:11.452Z,17.75
2018-05-05T10:16:38.893Z,17.59
2018-05-05T10:19:06.294Z,17.48
2018-05-05T10:21:33.731Z,17.25
2018-05-05T10:24:01.149Z,17.21
2018-05-05T10:26:28.594Z,17.09
2018-05-05T10:28:56.005Z,17.24
2018-05-05T10:31:23.441Z,17.28
2018-05-05T10:33:50.857Z,16.89
2018-05-05T10:36:18.340Z,16.95
2018-05-05T10:38:45.757Z,16.73
2018-05-05T10:41:13.165Z,16.95
2018-05-05T10:43:40.608Z,16.98
2018-05-05T10:46:08.015Z,17.06
2018-05-05T10:48:36.378Z,16.98
2018-05-05T10:51:03.801Z,16.80
2018-05-05T10:53:31.237Z,16.67
2018-05-05T10:55:58.650Z,16.68
2018-05-05T10:58:26.987Z,16.54
2018-05-05T11:00:55.293Z,16.57
2018-05-05T11:03:22.724Z,16.42
2018-05-05T11:05:50.129Z,16.54
2018-05-05T11:08:17.562Z,16.69
2018-05-05T11:10:44.973Z,16.77
2018-05-05T11:13:12.409Z,16.60
2018-05-05T11:15:39.822Z,16.53
2018-05-05T11:18:07.253Z,16.87
2018-05-05T11:20:34.661Z,16.78
2018-05-05T11:23:02.077Z,16.83
2018-05-05T11:25:29.528Z,17.01
2018-05-05T11:27:56.933Z,17.28
2018-05-05T11:30:24.373Z,17.01
2018-05-05T11:32:51.793Z,17.10
2018-05-05T11:35:19.237Z,17.61
2018-05-05T11:37:46.653Z,17.49
2018-05-05T11:40:14.098Z,17.66
2018-05-05T11:42:41.512Z,17.52
2018-05-05T11:45:08.949Z,17.66
2018-05-05T11:47:36.362Z,17.75
2018-05-05T11:50:03.802Z,17.45
2018-05-05T11:52:31.217Z,17.16
2018-05-05T11:54:58.656Z,17.16
2018-05-05T11:57:26.062Z,17.41
2018-05-05T11:59:53.513Z,17.58
2018-05-05T12:02:20.963Z,17.64
2018-05-05T12:04:48.361Z,17.92
2018-05-05T12:07:15.781Z,18.30
2018-05-05T12:09:43.253Z,17.43
2018-05-05T12:12:10.677Z,17.75
2018-05-05T12:14:38.126Z,18.28
2018-05-05T12:17:05.538Z,17.96
2018-05-05T12:19:33.103Z,17.55
2018-05-05T12:22:00.510Z,17.75
2018-05-05T12:24:27.947Z,17.71
2018-05-05T12:26:56.358Z,18.07
2018-05-05T12:29:23.771Z,17.59
2018-05-05T12:31:51.205Z,17.54
2018-05-05T12:34:18.617Z,18.03
2018-05-05T12:36:47.011Z,17.94
2018-05-05T12:39:14.413Z,18.16
2018-05-05T12:41:41.861Z,18.42
2018-05-05T12:44:09.270Z,18.31
2018-05-05T12:46:36.709Z,18.28
2018-05-05T12:49:04.186Z,18.85
2018-05-05T12:51:31.629Z,18.36
2018-05-05T12:53:59.041Z,18.44
2018-05-05T12:56:26.478Z,18.34
2018-05-05T12:58:53.893Z,18.32
2018-05-05T13:01:21.341Z,18.42
2018-05-05T13:03:48.766Z,18.81
2018-05-05T13:06:16.207Z,19.14
2018-05-05T13:08:43.656Z,19.57
2018-05-05T13:11:11.069Z,19.38
2018-05-05T13:13:38.501Z,19.09
2018-05-05T13:16:06.897Z,19.86
2018-05-05T13:18:34.334Z,19.51
2018-05-05T13:21:01.751Z,19.35
2018-05-05T13:23:30.096Z,19.56
2018-05-05T13:25:59.440Z,19.62
2018-05-05T13:28:27.799Z,19.85
2018-05-05T13:30:55.229Z,20.72
2018-05-05T13:33:22.665Z,21.38
2018-05-05T13:35:53.334Z,21.59
2018-05-05T13:38:21.813Z,21.73
2018-05-05T13:40:49.234Z,22.57
2018-05-05T13:43:16.675Z,23.92
2018-05-05T13:45:44.166Z,25.60
2018-05-05T13:48:11.631Z,25.77
2018-05-05T13:50:39.167Z,26.03
2018-05-05T13:53:06.718Z,25.82
2018-05-05T13:55:34.206Z,27.49
2018-05-05T13:58:01.564Z,28.75
2018-05-05T14:00:29.017Z,28.45
2018-05-05T14:02:56.495Z,29.82
2018-05-05T14:05:23.877Z,29.88
2018-05-05T14:07:51.290Z,31.21
2018-05-05T14:10:18.724Z,30.45
2018-05-05T14:12:46.137Z,31.83
2018-05-05T14:15:13.579Z,32.52
2018-05-05T14:17:41.027Z,31.98
2018-05-05T14:20:08.462Z,31.38
2018-05-05T14:22:35.895Z,31.57
2018-05-05T14:25:05.258Z,31.58
2018-05-05T14:27:32.677Z,31.67
2018-05-05T14:30:02.113Z,30.42
2018-05-05T14:32:29.526Z,28.96
2018-05-05T14:34:58.876Z,29.67
2018-05-05T14:37:26.286Z,31.78
2018-05-05T14:39:53.702Z,33.00
2018-05-05T14:42:21.137Z,34.09
2018-05-05T14:44:48.830Z,36.04
2018-05-05T14:47:17.173Z,35.58
2018-05-05T14:49:44.601Z,37.02
2018-05-05T14:52:12.025Z,37.68
2018-05-05T14:54:39.433Z,37.66
2018-05-05T14:57:06.874Z,38.79
2018-05-05T14:59:34.285Z,40.13
2018-05-05T15:02:01.725Z,41.67
2018-05-05T15:04:29.138Z,42.06
2018-05-05T15:06:56.572Z,40.93
2018-05-05T15:09:23.993Z,38.49
2018-05-05T15:11:51.450Z,40.07
2018-05-05T15:14:20.813Z,39.78
2018-05-05T15:16:48.250Z,42.60
2018-05-05T15:19:15.694Z,42.29
2018-05-05T15:21:47.973Z,42.94
2018-05-05T15:24:16.362Z,43.01
2018-05-05T15:26:44.713Z,44.20
2018-05-05T15:29:13.081Z,44.31
2018-05-05T15:31:41.651Z,41.48
2018-05-05T15:34:09.115Z,43.85
2018-05-05T15:36:36.497Z,44.23
2018-05-05T15:39:04.762Z,45.66
2018-05-05T15:41:32.211Z,45.88
2018-05-05T15:43:59.646Z,45.93
2018-05-05T15:46:27.062Z,46.29
2018-05-05T15:48:54.490Z,41.31
2018-05-05T15:51:21.928Z,41.40
2018-05-05T15:53:49.733Z,42.58
2018-05-05T15:56:17.146Z,40.56
2018-05-05T15:58:44.579Z,42.14
2018-05-05T16:01:11.986Z,43.23
2018-05-05T16:03:39.393Z,41.88
2018-05-05T16:06:07.721Z,44.00
2018-05-05T16:08:35.141Z,44.02
2018-05-05T16:11:02.783Z,42.07
2018-05-05T16:13:30.197Z,42.53
2018-05-05T16:15:57.651Z,42.00
2018-05-05T16:18:25.049Z,43.20
2018-05-05T16:20:52.489Z,40.89
2018-05-05T16:23:19.898Z,43.42
2018-05-05T16:25:47.333Z,41.90
2018-05-05T16:28:14.739Z,41.04
2018-05-05T16:30:43.073Z,40.68
2018-05-05T16:33:10.477Z,40.08
2018-05-05T16:35:37.914Z,41.88
2018-05-05T16:38:05.325Z,39.11
2018-05-05T16:40:32.781Z,40.68
2018-05-05T16:43:00.195Z,38.14
2018-05-05T16:45:27.601Z,38.45
2018-05-05T16:47:55.042Z,40.50
2018-05-05T16:50:22.454Z,39.66
2018-05-05T16:52:49.894Z,41.18
2018-05-05T16:55:17.305Z,40.93
2018-05-05T16:57:44.742Z,36.72
2018-05-05T17:00:12.162Z,38.69
2018-05-05T17:02:39.605Z,37.56
2018-05-05T17:05:08.968Z,33.82
2018-05-05T17:07:36.406Z,26.84
2018-05-05T17:10:03.845Z,22.41
2018-05-05T17:12:50.248Z,20.80
2018-05-05T17:15:17.621Z,19.75
2018-05-05T17:17:45.056Z,19.16
2018-05-05T17:20:14.388Z,19.11
2018-05-05T17:22:41.818Z,18.81
2018-05-05T17:25:09.241Z,18.55
2018-05-05T17:27:36.678Z,18.46
2018-05-05T17:30:04.107Z,18.40
2018-05-05T17:32:31.563Z,18.33
2018-05-05T17:34:58.974Z,18.38
2018-05-05T17:37:26.386Z,18.34
2018-05-05T17:39:53.819Z,18.00
2018-05-05T17:42:22.279Z,17.83
2018-05-05T17:44:50.245Z,17.77
2018-05-05T17:47:18.529Z,17.57
2018-05-05T17:49:46.035Z,17.30
2018-05-05T17:52:13.410Z,17.35
2018-05-05T17:54:41.805Z,17.32
2018-05-05T17:57:09.298Z,17.03
2018-05-05T17:59:49.000Z,16.96
2018-05-05T18:02:16.569Z,16.77
2018-05-05T18:04:44.012Z,16.55
2018-05-05T18:07:11.418Z,16.63
2018-05-05T18:09:38.854Z,16.68
2018-05-05T18:12:06.257Z,16.45
2018-05-05T18:14:33.717Z,16.38
2018-05-05T18:17:02.115Z,16.25
2018-05-05T18:19:29.550Z,16.10
2018-05-05T18:21:56.971Z,16.03
2018-05-05T18:24:24.422Z,15.78
2018-05-05T18:26:51.837Z,15.90
2018-05-05T18:29:19.245Z,15.75
2018-05-05T18:31:47.704Z,15.66
2018-05-05T18:34:15.573Z,15.69
2018-05-05T18:36:43.926Z,15.66
2018-05-05T18:39:11.422Z,15.48
2018-05-05T18:41:39.753Z,15.49
2018-05-05T18:44:07.161Z,15.43
2018-05-05T18:46:34.593Z,15.52
2018-05-05T18:49:03.056Z,15.33
2018-05-05T18:51:30.492Z,15.19
2018-05-05T18:53:57.897Z,15.21
2018-05-05T18:56:25.341Z,15.16
2018-05-05T18:58:52.750Z,15.08
2018-05-05T19:01:20.209Z,14.96
2018-05-05T19:03:47.625Z,14.97
2018-05-05T19:06:15.127Z,15.06
2018-05-05T19:08:42.492Z,14.98
2018-05-05T19:11:09.925Z,14.98
2018-05-05T19:13:37.342Z,14.92
2018-05-05T19:16:04.836Z,14.74
2018-05-05T19:18:32.217Z,14.70
2018-05-05T19:20:59.628Z,14.72
2018-05-05T19:23:28.064Z,14.62
2018-05-05T19:25:55.485Z,14.67
2018-05-05T19:28:22.917Z,14.59
2018-05-05T19:30:50.334Z,14.46
2018-05-05T19:33:17.803Z,14.32
2018-05-05T19:35:46.134Z,14.49
2018-05-05T19:38:13.577Z,14.38
2018-05-05T19:40:41.005Z,14.39
2018-05-05T19:43:09.491Z,14.40
2018-05-05T19:45:36.892Z,14.38
2018-05-05T19:48:04.332Z,14.24
2018-05-05T19:50:31.761Z,14.20
2018-05-05T19:52:59.201Z,14.15
2018-05-05T19:55:26.633Z,14.13
2018-05-05T19:57:54.133Z,14.17
2018-05-05T20:00:21.549Z,14.06
2018-05-05T20:02:48.981Z,14.03
2018-05-05T20:07:52.942Z,13.86
2018-05-05T20:10:21.315Z,13.85
2018-05-05T20:12:48.740Z,13.92
2018-05-05T20:15:16.193Z,13.95
2018-05-05T20:17:44.521Z,13.88
2018-05-05T20:20:12.851Z,13.78
2018-05-05T20:22:42.294Z,13.89
2018-05-05T20:25:09.747Z,13.90
2018-05-05T20:27:38.425Z,13.80
2018-05-05T20:30:06.766Z,13.84
2018-05-05T20:32:34.177Z,13.81
2018-05-05T20:35:02.574Z,13.70
2018-05-05T20:37:29.994Z,13.61
2018-05-05T20:39:57.449Z,13.48
2018-05-05T20:42:28.545Z,13.56
2018-05-05T20:44:55.990Z,13.66
2018-05-05T20:47:23.409Z,13.60
2018-05-05T20:49:50.852Z,13.57
2018-05-05T20:52:18.259Z,13.55
2018-05-05T20:54:45.705Z,13.60
2018-05-05T20:57:15.017Z,13.54
2018-05-05T20:59:42.461Z,13.45
2018-05-05T21:02:09.897Z,13.42
2018-05-05T21:04:37.314Z,13.38
2018-05-05T21:07:05.653Z,13.37
2018-05-05T21:09:33.067Z,13.34
2018-05-05T21:12:00.506Z,13.31
2018-05-05T21:14:27.925Z,13.30
2018-05-05T21:16:55.379Z,13.27
2018-05-05T21:19:22.790Z,13.17
2018-05-05T21:21:50.235Z,13.12
2018-05-05T21:24:17.643Z,13.09
2018-05-05T21:26:45.078Z,13.02
2018-05-05T21:29:12.494Z,13.05
2018-05-05T21:31:39.932Z,12.98
2018-05-05T21:34:08.246Z,12.93
2018-05-05T21:36:35.709Z,13.07
2018-05-05T21:39:03.126Z,13.04
2018-05-05T21:41:30.537Z,12.93
2018-05-05T21:43:57.969Z,12.90
2018-05-05T21:46:26.290Z,12.90
2018-05-05T22:03:56.978Z,12.65
2018-05-05T22:06:24.391Z,12.61
2018-05-05T22:08:51.822Z,12.63
2018-05-05T22:11:19.247Z,12.60
2018-05-05T22:13:49.777Z,12.64
2018-05-05T22:16:17.189Z,12.69
2018-05-05T22:18:44.626Z,12.67
2018-05-05T22:21:15.766Z,12.66
2018-05-05T22:23:43.202Z,12.70
2018-05-05T22:26:10.622Z,12.79
2018-05-05T22:28:38.062Z,12.83
2018-05-05T22:31:05.478Z,12.82
2018-05-05T22:33:32.898Z,12.79
2018-05-05T22:36:00.332Z,12.71
2018-05-05T22:38:27.758Z,12.74
2018-05-05T22:40:55.200Z,12.66
2018-05-05T22:43:22.613Z,12.68
2018-05-05T22:45:50.953Z,12.59
2018-05-05T22:48:18.368Z,12.57
2018-05-05T22:50:45.805Z,12.53
2018-05-05T22:53:13.221Z,12.51
2018-05-05T22:55:40.654Z,12.48
2018-05-05T22:58:08.077Z,12.52
2018-05-05T23:00:35.498Z,12.52
2018-05-05T23:03:02.931Z,12.47
2018-05-05T23:05:31.255Z,12.48
2018-05-05T23:07:58.695Z,12.53
2018-05-05T23:10:26.117Z,12.51
2018-05-05T23:12:53.552Z,12.51
2018-05-05T23:15:20.965Z,12.46
2018-05-05T23:17:48.393Z,12.41
2018-05-05T23:20:16.716Z,12.36
2018-05-05T23:22:44.145Z,12.51
2018-05-05T23:25:11.557Z,12.52
2018-05-05T23:27:39.000Z,12.42
2018-05-05T23:30:06.426Z,12.40
2018-05-05T23:32:33.862Z,12.53
2018-05-05T23:35:01.278Z,12.55
2018-05-05T23:37:28.717Z,12.55
2018-05-05T23:43:10.991Z,12.34
2018-05-05T23:45:42.099Z,12.24
2018-05-05T23:48:09.556Z,12.23
2018-05-05T23:50:37.897Z,12.15
2018-05-05T23:53:06.133Z,12.12
2018-05-05T23:55:35.445Z,12.14
2018-05-05T23:58:09.451Z,12.16
